createdAt,value
2022-09-20T00:02:21.455Z,8.48
2022-09-20T00:05:23.234Z,8.51
2022-09-20T00:08:24.814Z,8.40
2022-09-20T00:11:29.452Z,8.32
2022-09-20T00:14:30.999Z,8.51
2022-09-20T00:17:32.734Z,8.57
2022-09-20T00:20:34.426Z,8.58
2022-09-20T00:23:36.627Z,8.63
2022-09-20T00:26:38.442Z,8.47
2022-09-20T00:29:40.836Z,8.40
2022-09-20T00:32:42.536Z,8.21
2022-09-20T00:35:44.942Z,8.22
2022-09-20T00:38:46.611Z,8.22
2022-09-20T00:41:48.168Z,8.17
2022-09-20T00:45:00.847Z,8.10
2022-09-20T00:48:12.337Z,7.98
2022-09-20T00:51:18.939Z,8.13
2022-09-20T00:54:23.286Z,8.06
2022-09-20T00:57:25.083Z,7.95
2022-09-20T01:00:27.913Z,7.91
2022-09-20T01:03:33.060Z,8.08
2022-09-20T01:06:36.203Z,8.16
2022-09-20T01:09:37.766Z,7.95
2022-09-20T01:12:40.730Z,8.01
2022-09-20T01:15:44.650Z,8.02
2022-09-20T01:18:48.174Z,7.88
2022-09-20T01:21:50.324Z,7.85
2022-09-20T01:25:14.218Z,7.89
2022-09-20T01:28:17.089Z,7.93
2022-09-20T01:31:25.314Z,7.95
2022-09-20T01:34:36.219Z,8.04
2022-09-20T01:38:00.874Z,8.08
2022-09-20T01:41:15.501Z,8.03
2022-09-20T01:44:29.731Z,7.95
2022-09-20T01:47:44.361Z,8.00
2022-09-20T01:51:07.690Z,8.17
2022-09-20T01:54:24.558Z,8.31
2022-09-20T01:57:44.488Z,8.37
2022-09-20T02:01:04.294Z,8.32
2022-09-20T02:04:09.076Z,8.33
2022-09-20T02:07:39.260Z,8.31
2022-09-20T02:10:58.076Z,8.31
2022-09-20T02:14:37.240Z,8.27
2022-09-20T02:18:09.816Z,8.28
2022-09-20T02:21:21.886Z,8.20
2022-09-20T02:24:49.265Z,8.09
2022-09-20T02:28:05.674Z,8.07
2022-09-20T02:31:21.610Z,7.89
2022-09-20T02:34:37.656Z,8.02
2022-09-20T02:38:00.110Z,7.86
2022-09-20T02:41:07.481Z,7.92
2022-09-20T02:44:47.461Z,7.82
2022-09-20T02:47:51.738Z,7.69
2022-09-20T02:51:08.892Z,7.56
2022-09-20T02:54:28.765Z,7.63
2022-09-20T02:57:46.947Z,7.66
2022-09-20T03:00:56.646Z,7.59
2022-09-20T03:04:22.882Z,7.75
2022-09-20T03:07:55.476Z,7.80
2022-09-20T03:11:24.849Z,7.81
2022-09-20T03:14:34.545Z,7.62
2022-09-20T03:17:57.921Z,7.79
2022-09-20T03:21:05.504Z,7.59
2022-09-20T03:24:06.988Z,7.58
2022-09-20T03:27:18.503Z,7.56
2022-09-20T03:30:32.359Z,7.65
2022-09-20T03:33:46.227Z,7.72
2022-09-20T03:37:05.134Z,7.53
2022-09-20T03:40:36.609Z,7.61
2022-09-20T03:43:47.451Z,7.66
2022-09-20T03:46:58.023Z,7.66
2022-09-20T03:50:38.139Z,7.68
2022-09-20T03:54:05.718Z,7.53
2022-09-20T03:57:44.764Z,7.48
2022-09-20T04:01:05.678Z,7.45
2022-09-20T04:04:47.276Z,7.57
2022-09-20T04:08:40.463Z,7.57
2022-09-20T04:12:05.481Z,7.64
2022-09-20T04:15:12.716Z,7.50
2022-09-20T04:18:29.329Z,7.81
2022-09-20T04:21:51.690Z,7.88
2022-09-20T04:25:16.117Z,7.84
2022-09-20T04:28:25.497Z,7.81
2022-09-20T04:31:53.975Z,7.81
2022-09-20T04:35:14.714Z,7.80
2022-09-20T04:38:20.897Z,7.83
2022-09-20T04:41:38.092Z,7.73
2022-09-20T04:44:56.125Z,7.58
2022-09-20T04:48:14.621Z,7.64
2022-09-20T04:51:34.989Z,7.63
2022-09-20T04:54:50.435Z,7.63
2022-09-20T04:58:21.289Z,7.82
2022-09-20T05:01:47.943Z,7.98
2022-09-20T05:05:36.101Z,7.87
2022-09-20T05:08:59.983Z,7.65
2022-09-20T05:12:35.712Z,7.82
2022-09-20T05:15:49.981Z,8.02
2022-09-20T05:19:23.093Z,8.59
2022-09-20T05:22:39.893Z,8.70
2022-09-20T05:25:56.541Z,8.76
2022-09-20T05:29:00.906Z,9.07
2022-09-20T05:32:12.068Z,9.48
2022-09-20T05:35:21.545Z,9.68
2022-09-20T05:38:44.561Z,10.01
2022-09-20T05:41:52.597Z,10.36
2022-09-20T05:45:06.349Z,10.06
2022-09-20T05:48:32.132Z,10.14
2022-09-20T05:52:21.710Z,10.13
2022-09-20T05:56:05.167Z,9.93
2022-09-20T05:59:22.303Z,9.86
2022-09-20T06:02:59.930Z,9.81
2022-09-20T06:06:32.684Z,9.53
2022-09-20T06:09:53.327Z,9.42
2022-09-20T06:13:03.228Z,9.43
2022-09-20T06:16:07.766Z,9.30
2022-09-20T06:19:34.439Z,9.39
2022-09-20T06:22:45.056Z,9.34
2022-09-20T06:25:57.667Z,9.45
2022-09-20T06:29:03.138Z,9.79
2022-09-20T06:32:04.918Z,9.89
2022-09-20T06:35:07.075Z,10.10
2022-09-20T06:38:41.684Z,10.28
2022-09-20T06:41:44.550Z,10.23
2022-09-20T06:44:47.111Z,10.49
2022-09-20T06:47:48.670Z,10.71
2022-09-20T06:50:52.379Z,11.16
2022-09-20T06:53:56.075Z,11.51
2022-09-20T06:56:58.132Z,11.91
2022-09-20T06:59:59.774Z,12.20
2022-09-20T07:03:01.380Z,12.44
2022-09-20T07:06:04.422Z,12.68
2022-09-20T07:09:06.560Z,13.00
2022-09-20T07:12:10.758Z,13.60
2022-09-20T07:15:12.505Z,13.90
2022-09-20T07:18:14.048Z,14.43
2022-09-20T07:21:18.761Z,14.65
2022-09-20T07:24:20.306Z,14.77
2022-09-20T07:27:22.045Z,14.55
2022-09-20T07:30:24.198Z,14.45
2022-09-20T07:33:25.804Z,14.24
2022-09-20T07:36:27.507Z,14.12
2022-09-20T07:39:29.685Z,14.58
2022-09-20T07:42:31.788Z,14.23
2022-09-20T07:45:35.507Z,13.78
2022-09-20T07:48:37.162Z,13.71
2022-09-20T07:51:38.853Z,14.03
2022-09-20T07:54:40.704Z,14.85
2022-09-20T07:57:43.067Z,16.07
2022-09-20T08:00:44.615Z,16.69
2022-09-20T08:03:46.365Z,17.77
2022-09-20T08:06:48.220Z,19.17
2022-09-20T08:09:50.584Z,20.58
2022-09-20T08:16:14.894Z,21.45
2022-09-20T08:19:19.271Z,22.14
2022-09-20T08:22:22.132Z,20.34
2022-09-20T08:25:23.941Z,22.20
2022-09-20T08:28:25.492Z,21.15
2022-09-20T08:31:35.413Z,21.60
2022-09-20T08:34:37.510Z,23.18
2022-09-20T08:37:39.303Z,24.47
2022-09-20T08:40:41.166Z,23.70
2022-09-20T08:43:46.968Z,23.34
2022-09-20T08:46:52.484Z,22.99
2022-09-20T08:49:57.111Z,22.79
2022-09-20T08:53:05.138Z,23.10
2022-09-20T08:56:09.222Z,23.54
2022-09-20T08:59:17.400Z,22.99
2022-09-20T09:02:21.401Z,22.64
2022-09-20T09:05:34.143Z,21.63
2022-09-20T09:08:38.354Z,22.16
2022-09-20T09:11:45.879Z,23.78
2022-09-20T09:14:57.360Z,25.65
2022-09-20T09:17:59.058Z,22.56
2022-09-20T09:21:04.218Z,22.77
2022-09-20T09:24:13.896Z,24.81
2022-09-20T09:27:19.213Z,28.14
2022-09-20T09:30:24.363Z,27.32
2022-09-20T09:33:28.314Z,26.20
2022-09-20T09:36:30.159Z,27.62
2022-09-20T09:39:35.571Z,24.98
2022-09-20T09:42:37.287Z,25.45
2022-09-20T09:45:39.500Z,21.23
2022-09-20T09:48:41.195Z,20.51
2022-09-20T09:52:02.737Z,23.37
2022-09-20T09:55:06.015Z,26.67
2022-09-20T09:58:23.920Z,24.94
2022-09-20T10:01:58.067Z,21.47
2022-09-20T10:05:18.378Z,20.74
2022-09-20T10:08:53.334Z,18.80
2022-09-20T10:11:58.770Z,17.60
2022-09-20T10:15:28.077Z,16.72
2022-09-20T10:18:38.668Z,16.14
2022-09-20T10:22:21.778Z,15.96
2022-09-20T10:25:55.082Z,15.86
2022-09-20T10:29:24.440Z,15.49
2022-09-20T10:32:45.966Z,15.05
2022-09-20T10:36:04.145Z,14.92
2022-09-20T10:39:27.224Z,14.82
2022-09-20T10:43:17.629Z,14.16
2022-09-20T10:46:53.124Z,13.30
2022-09-20T10:50:07.729Z,12.68
2022-09-20T10:53:35.479Z,12.38
2022-09-20T10:56:49.677Z,12.68
2022-09-20T11:00:04.711Z,13.11
2022-09-20T11:03:32.372Z,13.24
2022-09-20T11:06:58.582Z,13.14
2022-09-20T11:10:16.263Z,13.67
2022-09-20T11:13:45.999Z,14.28
2022-09-20T11:17:08.737Z,15.04
2022-09-20T11:20:42.881Z,15.86
2022-09-20T11:23:51.808Z,16.94
2022-09-20T11:26:59.141Z,17.83
2022-09-20T11:30:01.102Z,17.07
2022-09-20T11:33:22.453Z,16.90
2022-09-20T11:36:27.416Z,16.89
2022-09-20T11:39:46.478Z,16.70
2022-09-20T11:42:49.968Z,16.17
2022-09-20T11:45:58.625Z,16.37
2022-09-20T11:49:11.727Z,16.75
2022-09-20T11:52:20.184Z,16.96
2022-09-20T11:55:34.532Z,16.72
2022-09-20T11:58:55.964Z,16.73
2022-09-20T12:02:01.711Z,16.51
2022-09-20T12:05:22.922Z,16.30
2022-09-20T12:08:28.373Z,16.24
2022-09-20T12:11:33.718Z,16.36
2022-09-20T12:14:36.113Z,16.58
2022-09-20T12:17:46.555Z,17.04
2022-09-20T12:20:51.504Z,17.08
2022-09-20T12:23:53.069Z,16.75
2022-09-20T12:27:15.742Z,16.70
2022-09-20T12:30:20.982Z,16.33
2022-09-20T12:34:01.144Z,16.02
2022-09-20T12:37:05.126Z,16.23
2022-09-20T12:40:16.388Z,16.38
2022-09-20T12:43:22.286Z,16.42
2022-09-20T12:46:36.545Z,16.38
2022-09-20T12:50:06.279Z,16.72
2022-09-20T12:53:16.852Z,17.11
2022-09-20T12:56:28.204Z,17.49
2022-09-20T12:59:31.265Z,17.67
2022-09-20T13:02:52.267Z,17.71
2022-09-20T13:06:06.253Z,17.90
2022-09-20T13:09:09.497Z,18.41
2022-09-20T13:12:11.385Z,18.67
2022-09-20T13:15:19.641Z,18.12
2022-09-20T13:18:25.302Z,19.56
2022-09-20T13:21:27.950Z,24.04
2022-09-20T13:24:38.990Z,25.32
2022-09-20T13:27:47.001Z,26.09
2022-09-20T13:30:48.672Z,28.02
2022-09-20T13:33:50.768Z,25.81
2022-09-20T13:36:58.576Z,24.47
2022-09-20T13:40:00.908Z,23.29
2022-09-20T13:43:24.755Z,23.65
2022-09-20T13:46:32.357Z,25.94
2022-09-20T13:49:33.979Z,22.45
2022-09-20T13:52:52.368Z,20.24
2022-09-20T13:55:56.978Z,19.03
2022-09-20T13:59:05.186Z,18.90
2022-09-20T14:02:31.045Z,18.20
2022-09-20T14:05:33.798Z,17.36
2022-09-20T14:08:45.918Z,17.29
2022-09-20T14:11:48.088Z,17.15
2022-09-20T14:14:51.231Z,17.26
2022-09-20T14:17:54.464Z,16.61
2022-09-20T14:20:56.942Z,15.97
2022-09-20T14:24:02.884Z,15.57
2022-09-20T14:27:22.919Z,15.41
2022-09-20T14:30:35.139Z,15.68
2022-09-20T14:33:42.708Z,15.71
2022-09-20T14:36:44.981Z,15.74
2022-09-20T14:39:53.850Z,15.52
2022-09-20T14:42:57.325Z,15.30
2022-09-20T14:46:02.048Z,15.23
2022-09-20T14:49:40.673Z,15.20
2022-09-20T14:52:44.123Z,15.23
2022-09-20T14:56:00.434Z,14.93
2022-09-20T14:59:09.566Z,14.70
2022-09-20T15:02:14.688Z,14.71
2022-09-20T15:05:26.119Z,14.51
2022-09-20T15:08:28.060Z,14.50
2022-09-20T15:11:30.077Z,13.94
2022-09-20T15:14:36.510Z,13.80
2022-09-20T15:17:39.722Z,13.89
2022-09-20T15:20:41.283Z,14.13
2022-09-20T15:23:42.911Z,14.28
2022-09-20T15:26:45.435Z,14.04
2022-09-20T15:29:47.016Z,13.97
2022-09-20T15:32:48.720Z,14.19
2022-09-20T15:35:50.425Z,14.42
2022-09-20T15:38:53.973Z,14.45
2022-09-20T15:41:55.630Z,14.33
2022-09-20T15:44:57.184Z,14.33
2022-09-20T15:47:58.865Z,14.50
2022-09-20T15:51:08.811Z,14.53
2022-09-20T15:54:13.966Z,14.55
2022-09-20T15:57:15.982Z,14.53
2022-09-20T16:00:20.878Z,14.27
2022-09-20T16:03:29.835Z,14.40
2022-09-20T16:06:32.815Z,14.10
2022-09-20T16:09:36.263Z,13.89
2022-09-20T16:12:37.877Z,13.71
2022-09-20T16:15:39.551Z,13.45
2022-09-20T16:19:00.769Z,13.44
2022-09-20T16:22:02.371Z,13.21
2022-09-20T16:25:06.000Z,12.96
2022-09-20T16:28:07.736Z,12.82
2022-09-20T16:31:32.802Z,12.91
2022-09-20T16:34:36.434Z,12.95
2022-09-20T16:37:39.536Z,12.86
2022-09-20T16:40:41.645Z,13.09
2022-09-20T16:43:43.229Z,13.10
2022-09-20T16:46:45.791Z,13.13
2022-09-20T16:49:47.914Z,13.09
2022-09-20T16:52:50.070Z,13.13
2022-09-20T16:55:52.109Z,12.74
2022-09-20T16:58:54.526Z,12.36
2022-09-20T17:01:56.406Z,12.04
2022-09-20T17:04:58.140Z,12.10
2022-09-20T17:08:00.913Z,12.15
2022-09-20T17:11:02.586Z,11.96
2022-09-20T17:14:05.112Z,11.48
2022-09-20T17:17:06.666Z,11.00
2022-09-20T17:20:08.510Z,11.00
2022-09-20T17:23:10.201Z,10.99
2022-09-20T17:26:16.100Z,11.18
2022-09-20T17:29:19.371Z,11.30
2022-09-20T17:32:21.015Z,11.00
2022-09-20T17:35:22.700Z,11.17
2022-09-20T17:38:24.447Z,11.11
2022-09-20T17:41:27.492Z,11.22
2022-09-20T17:44:29.090Z,10.96
2022-09-20T17:47:30.756Z,11.03
2022-09-20T17:50:32.305Z,11.27
2022-09-20T17:53:34.990Z,11.34
2022-09-20T17:56:37.167Z,11.50
2022-09-20T17:59:38.810Z,11.44
2022-09-20T18:02:40.433Z,11.44
2022-09-20T18:05:42.368Z,11.16
2022-09-20T18:08:55.827Z,10.69
2022-09-20T18:11:57.551Z,10.73
2022-09-20T18:14:59.300Z,10.77
2022-09-20T18:18:00.931Z,10.84
2022-09-20T18:21:10.287Z,10.95
2022-09-20T18:24:12.177Z,10.80
2022-09-20T18:27:13.748Z,10.84
2022-09-20T18:30:15.499Z,11.15
2022-09-20T18:33:17.323Z,11.09
2022-09-20T18:36:19.019Z,11.06
2022-09-20T18:39:25.645Z,10.96
2022-09-20T18:42:27.437Z,11.01
2022-09-20T18:45:29.235Z,11.10
2022-09-20T18:48:34.044Z,10.97
2022-09-20T18:51:39.801Z,10.92
2022-09-20T18:54:41.804Z,10.92
2022-09-20T18:57:43.703Z,10.95
2022-09-20T19:00:46.400Z,10.86
2022-09-20T19:04:07.131Z,11.17
2022-09-20T19:07:36.203Z,10.84
2022-09-20T19:10:49.279Z,10.84
2022-09-20T19:14:06.636Z,10.73
2022-09-20T19:17:10.611Z,10.54
2022-09-20T19:20:24.698Z,11.02
2022-09-20T19:23:28.872Z,10.92
2022-09-20T19:26:32.567Z,10.84
2022-09-20T19:29:34.633Z,10.59
2022-09-20T19:32:36.614Z,10.64
2022-09-20T19:35:47.400Z,10.28
2022-09-20T19:39:07.298Z,10.24
2022-09-20T19:42:33.229Z,10.10
2022-09-20T19:45:53.071Z,10.15
2022-09-20T19:49:08.054Z,10.26
2022-09-20T19:52:13.785Z,10.34
2022-09-20T19:55:16.181Z,10.48
2022-09-20T19:58:18.229Z,10.48
2022-09-20T20:01:24.660Z,10.53
2022-09-20T20:04:26.654Z,10.76
2022-09-20T20:07:39.981Z,10.99
2022-09-20T20:10:50.463Z,11.01
2022-09-20T20:14:05.093Z,10.97
2022-09-20T20:17:38.555Z,10.76
2022-09-20T20:20:47.657Z,10.92
2022-09-20T20:24:10.735Z,10.66
2022-09-20T20:27:12.653Z,10.43
2022-09-20T20:30:14.808Z,10.53
2022-09-20T20:33:16.954Z,10.66
2022-09-20T20:36:18.662Z,10.63
2022-09-20T20:39:20.444Z,10.71
2022-09-20T20:42:22.199Z,10.77
2022-09-20T20:45:24.136Z,11.06
2022-09-20T20:48:26.021Z,11.15
2022-09-20T20:51:28.164Z,11.04
2022-09-20T20:54:30.098Z,10.97
2022-09-20T20:57:32.136Z,10.65
2022-09-20T21:00:33.776Z,10.68
2022-09-20T21:03:35.713Z,10.80
2022-09-20T21:06:40.648Z,10.92
2022-09-20T21:09:42.406Z,10.79
2022-09-20T21:12:43.970Z,10.55
2022-09-20T21:15:48.783Z,10.48
2022-09-20T21:18:51.205Z,10.44
2022-09-20T21:21:52.844Z,10.34
2022-09-20T21:24:55.341Z,10.52
2022-09-20T21:27:58.443Z,10.55
2022-09-20T21:31:04.284Z,10.54
2022-09-20T21:34:08.645Z,10.43
2022-09-20T21:37:10.780Z,10.26
2022-09-20T21:40:12.356Z,10.28
2022-09-20T21:43:14.051Z,10.07
2022-09-20T21:46:21.869Z,10.01
2022-09-20T21:49:23.596Z,9.94
2022-09-20T21:52:25.736Z,9.87
2022-09-20T21:55:27.688Z,9.92
2022-09-20T21:58:29.846Z,9.79
2022-09-20T22:01:35.446Z,9.83
2022-09-20T22:04:37.176Z,9.84
2022-09-20T22:07:38.832Z,9.77
2022-09-20T22:10:40.740Z,9.72
2022-09-20T22:13:45.949Z,9.90
2022-09-20T22:16:48.987Z,9.80
2022-09-20T22:19:50.854Z,9.94
2022-09-20T22:22:52.518Z,10.09
2022-09-20T22:26:00.173Z,10.16
2022-09-20T22:29:02.304Z,10.45
2022-09-20T22:32:04.148Z,10.62
2022-09-20T22:35:06.321Z,10.75
2022-09-20T22:38:08.308Z,10.74
2022-09-20T22:41:11.372Z,10.78
2022-09-20T22:44:12.959Z,10.89
2022-09-20T22:47:14.809Z,10.97
2022-09-20T22:50:16.765Z,10.90
2022-09-20T22:53:18.658Z,10.99
2022-09-20T22:56:31.566Z,11.02
2022-09-20T22:59:33.592Z,10.81
2022-09-20T23:02:35.493Z,10.46
2022-09-20T23:05:39.844Z,10.42
2022-09-20T23:08:42.222Z,10.31
2022-09-20T23:11:44.956Z,10.16
2022-09-20T23:14:46.775Z,9.93
2022-09-20T23:17:48.437Z,10.07
2022-09-20T23:20:59.374Z,9.98
2022-09-20T23:24:04.092Z,9.95
2022-09-20T23:27:06.057Z,9.73
2022-09-20T23:30:08.346Z,9.64
2022-09-20T23:33:10.222Z,9.71
2022-09-20T23:36:12.175Z,9.45
2022-09-20T23:39:14.637Z,9.56
2022-09-20T23:42:16.544Z,9.38
2022-09-20T23:45:18.303Z,9.17
2022-09-20T23:48:19.873Z,9.15
2022-09-20T23:51:24.253Z,9.31
2022-09-20T23:54:25.835Z,9.18
2022-09-20T23:57:27.494Z,9.10
